createdAt,value
2023-01-08T00:01:58.825Z,9.80
2023-01-08T00:04:25.578Z,9.60
2023-01-08T00:06:52.302Z,9.60
2023-01-08T00:09:19.008Z,9.60
2023-01-08T00:11:45.895Z,9.60
2023-01-08T00:14:12.730Z,9.60
2023-01-08T00:16:39.457Z,9.60
2023-01-08T00:19:06.258Z,9.50
2023-01-08T00:21:33.433Z,9.50
2023-01-08T00:24:00.171Z,9.40
2023-01-08T00:26:26.871Z,9.40
2023-01-08T00:28:54.303Z,9.30
2023-01-08T00:31:21.210Z,9.20
2023-01-08T00:33:47.985Z,9.20
2023-01-08T00:36:16.880Z,9.10
2023-01-08T00:38:44.668Z,9.10
2023-01-08T00:41:13.056Z,9.10
2023-01-08T00:43:40.250Z,9.10
2023-01-08T00:46:08.306Z,9.00
2023-01-08T00:48:38.781Z,9.00
2023-01-08T00:51:07.465Z,9.00
2023-01-08T00:53:34.816Z,9.00
2023-01-08T00:56:03.595Z,9.00
2023-01-08T00:58:30.751Z,9.00
2023-01-08T01:00:57.700Z,9.00
2023-01-08T01:03:25.020Z,9.10
2023-01-08T01:06:01.066Z,9.10
2023-01-08T01:08:28.011Z,9.10
2023-01-08T01:10:54.686Z,9.20
2023-01-08T01:13:21.396Z,9.20
2023-01-08T01:15:58.002Z,9.30
2023-01-08T01:18:25.002Z,9.40
2023-01-08T01:20:51.754Z,9.40
2023-01-08T01:23:18.504Z,9.40
2023-01-08T01:25:45.952Z,9.50
2023-01-08T01:28:12.777Z,9.50
2023-01-08T01:30:39.452Z,9.50
2023-01-08T01:33:06.175Z,9.50
2023-01-08T01:35:32.851Z,9.50
2023-01-08T01:37:59.509Z,9.50
2023-01-08T01:40:26.226Z,9.50
2023-01-08T01:42:52.887Z,9.50
2023-01-08T01:45:31.235Z,9.50
2023-01-08T01:48:06.757Z,9.50
2023-01-08T01:50:51.505Z,9.50
2023-01-08T01:53:20.016Z,9.50
2023-01-08T01:55:48.409Z,9.50
2023-01-08T01:58:19.193Z,9.50
2023-01-08T02:00:46.972Z,9.40
2023-01-08T02:03:15.803Z,9.30
2023-01-08T02:05:56.572Z,9.30
2023-01-08T02:08:41.806Z,9.20
2023-01-08T02:11:13.747Z,9.10
2023-01-08T02:13:44.741Z,8.90
2023-01-08T02:16:28.409Z,8.90
2023-01-08T02:19:04.732Z,8.80
2023-01-08T02:21:36.495Z,8.80
2023-01-08T02:24:17.467Z,8.70
2023-01-08T02:26:46.870Z,8.70
2023-01-08T02:29:18.210Z,8.70
2023-01-08T02:31:45.302Z,8.60
2023-01-08T02:34:13.829Z,8.60
2023-01-08T02:36:55.457Z,8.60
2023-01-08T02:39:32.722Z,8.60
2023-01-08T02:42:11.870Z,8.60
2023-01-08T02:44:57.431Z,8.60
2023-01-08T02:47:34.379Z,8.60
2023-01-08T02:50:39.327Z,8.60
2023-01-08T02:53:27.350Z,8.60
2023-01-08T02:56:05.542Z,8.60
2023-01-08T02:58:35.226Z,8.60
2023-01-08T03:01:08.033Z,8.60
2023-01-08T03:03:36.679Z,8.60
2023-01-08T03:06:07.340Z,8.60
2023-01-08T03:08:37.641Z,8.70
2023-01-08T03:11:13.270Z,8.70
2023-01-08T03:13:49.095Z,8.70
2023-01-08T03:16:21.039Z,8.70
2023-01-08T03:18:57.435Z,8.70
2023-01-08T03:21:25.214Z,8.70
2023-01-08T03:23:51.989Z,8.70
2023-01-08T03:26:23.184Z,8.70
2023-01-08T03:28:54.216Z,8.70
2023-01-08T03:31:23.371Z,8.70
2023-01-08T03:33:50.581Z,8.70
2023-01-08T03:36:21.153Z,8.70
2023-01-08T03:39:05.818Z,8.70
2023-01-08T03:41:35.776Z,8.70
2023-01-08T03:44:06.095Z,8.70
2023-01-08T03:46:35.682Z,8.60
2023-01-08T03:49:04.746Z,8.60
2023-01-08T03:51:43.461Z,8.70
2023-01-08T03:54:18.021Z,8.70
2023-01-08T03:56:45.462Z,8.60
2023-01-08T03:59:13.774Z,8.60
2023-01-08T04:01:41.067Z,8.60
2023-01-08T04:04:08.977Z,8.60
2023-01-08T04:06:35.917Z,8.60
2023-01-08T04:09:03.284Z,8.60
2023-01-08T04:11:30.043Z,8.50
2023-01-08T04:13:56.880Z,8.50
2023-01-08T04:16:23.622Z,8.50
2023-01-08T04:18:50.410Z,8.60
2023-01-08T04:21:17.523Z,8.50
2023-01-08T04:23:44.292Z,8.50
2023-01-08T04:26:11.424Z,8.50
2023-01-08T04:28:38.096Z,8.50
2023-01-08T04:31:07.304Z,8.50
2023-01-08T04:33:34.601Z,8.50
2023-01-08T04:36:01.604Z,8.50
2023-01-08T04:38:28.498Z,8.40
2023-01-08T04:40:59.362Z,8.40
2023-01-08T04:43:26.854Z,8.40
2023-01-08T04:45:57.250Z,8.40
2023-01-08T04:48:24.144Z,8.40
2023-01-08T04:50:51.324Z,8.40
2023-01-08T04:53:17.983Z,8.40
2023-01-08T04:55:44.764Z,8.40
2023-01-08T04:58:11.928Z,8.30
2023-01-08T05:00:39.989Z,8.30
2023-01-08T05:03:06.816Z,8.30
2023-01-08T05:05:34.617Z,8.30
2023-01-08T05:08:01.446Z,8.30
2023-01-08T05:10:28.267Z,8.20
2023-01-08T05:12:59.831Z,8.30
2023-01-08T05:15:26.730Z,8.20
2023-01-08T05:18:02.133Z,8.20
2023-01-08T05:20:29.529Z,8.20
2023-01-08T05:22:56.386Z,8.20
2023-01-08T05:25:23.131Z,8.20
2023-01-08T05:27:50.180Z,8.20
2023-01-08T05:30:17.063Z,8.20
2023-01-08T05:32:43.772Z,8.10
2023-01-08T05:35:10.630Z,8.10
2023-01-08T05:37:38.048Z,8.10
2023-01-08T05:40:05.522Z,8.10
2023-01-08T05:42:34.553Z,8.10
2023-01-08T05:45:02.263Z,8.00
2023-01-08T05:47:34.478Z,8.00
2023-01-08T05:50:01.392Z,8.00
2023-01-08T05:52:29.033Z,8.00
2023-01-08T05:54:56.074Z,8.00
2023-01-08T05:57:22.753Z,7.90
2023-01-08T05:59:49.584Z,7.90
2023-01-08T06:02:16.432Z,7.90
2023-01-08T06:04:43.752Z,7.90
2023-01-08T06:07:10.474Z,7.90
2023-01-08T06:09:37.261Z,7.80
2023-01-08T06:12:04.341Z,7.80
2023-01-08T06:14:31.064Z,7.80
2023-01-08T06:16:57.776Z,7.80
2023-01-08T06:19:24.879Z,7.70
2023-01-08T06:21:52.073Z,7.70
2023-01-08T06:24:18.925Z,7.70
2023-01-08T06:26:45.900Z,7.70
2023-01-08T06:29:12.803Z,7.60
2023-01-08T06:31:39.958Z,7.60
2023-01-08T06:34:06.712Z,7.60
2023-01-08T06:36:33.505Z,7.50
2023-01-08T06:39:00.209Z,7.50
2023-01-08T06:41:26.948Z,7.50
2023-01-08T06:43:53.648Z,7.40
2023-01-08T06:46:20.439Z,7.40
2023-01-08T06:48:47.294Z,7.40
2023-01-08T06:51:14.014Z,7.40
2023-01-08T06:53:40.790Z,7.30
2023-01-08T06:56:09.396Z,7.30
2023-01-08T06:58:37.502Z,7.30
2023-01-08T07:01:04.401Z,7.20
2023-01-08T07:03:31.596Z,7.20
2023-01-08T07:05:58.561Z,7.20
2023-01-08T07:08:25.327Z,7.20
2023-01-08T07:10:52.042Z,7.10
2023-01-08T07:13:18.825Z,7.10
2023-01-08T07:15:45.596Z,7.10
2023-01-08T07:18:13.239Z,7.10
2023-01-08T07:20:40.127Z,7.10
2023-01-08T07:23:10.109Z,7.00
2023-01-08T07:25:36.923Z,7.10
2023-01-08T07:28:03.673Z,7.00
2023-01-08T07:30:30.904Z,7.00
2023-01-08T07:32:59.513Z,7.00
2023-01-08T07:35:26.294Z,7.00
2023-01-08T07:37:52.955Z,7.00
2023-01-08T07:40:19.681Z,7.00
2023-01-08T07:42:46.389Z,7.00
2023-01-08T07:45:13.238Z,7.00
2023-01-08T07:47:39.976Z,7.00
2023-01-08T07:50:07.035Z,7.00
2023-01-08T07:52:33.687Z,7.00
2023-01-08T07:55:00.343Z,6.90
2023-01-08T07:57:30.151Z,6.90
2023-01-08T07:59:56.868Z,6.90
2023-01-08T08:02:23.676Z,6.90
2023-01-08T08:04:50.517Z,6.80
2023-01-08T08:07:17.375Z,6.80
2023-01-08T08:09:44.123Z,6.80
2023-01-08T08:12:10.933Z,6.80
2023-01-08T08:14:37.584Z,6.80
2023-01-08T08:17:04.429Z,6.80
2023-01-08T08:19:31.317Z,6.70
2023-01-08T08:21:58.024Z,6.80
2023-01-08T08:24:25.030Z,6.80
2023-01-08T08:26:54.558Z,6.80
2023-01-08T08:29:21.560Z,6.80
2023-01-08T08:31:48.410Z,6.80
2023-01-08T08:34:15.387Z,6.80
2023-01-08T08:36:42.461Z,6.80
2023-01-08T08:39:13.854Z,6.80
2023-01-08T08:41:49.388Z,6.80
2023-01-08T08:44:16.220Z,6.80
2023-01-08T08:46:43.135Z,6.80
2023-01-08T08:49:10.011Z,6.80
2023-01-08T08:51:41.504Z,6.80
2023-01-08T08:54:08.444Z,6.80
2023-01-08T08:56:35.154Z,6.80
2023-01-08T08:59:01.954Z,6.80
2023-01-08T09:01:30.439Z,6.80
2023-01-08T09:03:57.808Z,6.70
2023-01-08T09:06:27.696Z,6.70
2023-01-08T09:08:55.289Z,6.70
2023-01-08T09:11:22.362Z,6.70
2023-01-08T09:13:51.677Z,6.70
2023-01-08T09:16:18.435Z,6.80
2023-01-08T09:18:45.536Z,6.80
2023-01-08T09:21:12.179Z,6.90
2023-01-08T09:23:39.183Z,6.90
2023-01-08T09:26:06.653Z,6.90
2023-01-08T09:28:33.498Z,6.90
2023-01-08T09:31:04.270Z,7.00
2023-01-08T09:33:31.758Z,7.00
2023-01-08T09:35:58.533Z,7.00
2023-01-08T09:38:25.286Z,7.10
2023-01-08T09:40:55.806Z,7.20
2023-01-08T09:43:24.495Z,7.20
2023-01-08T09:45:55.229Z,7.20
2023-01-08T09:48:26.392Z,7.20
2023-01-08T09:50:53.261Z,7.30
2023-01-08T09:53:20.413Z,7.40
2023-01-08T09:56:09.108Z,7.40
2023-01-08T09:58:50.618Z,7.40
2023-01-08T10:01:24.029Z,7.50
2023-01-08T10:04:13.921Z,7.60
2023-01-08T10:06:41.834Z,7.60
2023-01-08T10:09:14.508Z,7.70
2023-01-08T10:11:43.124Z,7.70
2023-01-08T10:14:23.387Z,7.80
2023-01-08T10:16:57.315Z,7.80
2023-01-08T10:19:24.620Z,7.90
2023-01-08T10:21:51.869Z,7.90
2023-01-08T10:24:31.815Z,7.90
2023-01-08T10:27:07.476Z,8.00
2023-01-08T10:29:34.262Z,8.10
2023-01-08T10:32:17.017Z,8.10
2023-01-08T10:34:57.981Z,8.20
2023-01-08T10:37:31.374Z,8.20
2023-01-08T10:40:08.831Z,8.20
2023-01-08T10:42:36.655Z,8.30
2023-01-08T10:45:11.123Z,8.40
2023-01-08T10:47:39.544Z,8.40
2023-01-08T10:50:19.387Z,8.50
2023-01-08T10:52:54.745Z,8.60
2023-01-08T10:55:26.558Z,8.70
2023-01-08T10:57:55.608Z,9.00
2023-01-08T11:00:30.794Z,9.20
2023-01-08T11:03:01.221Z,9.20
2023-01-08T11:05:42.994Z,9.20
2023-01-08T11:08:18.373Z,9.30
2023-01-08T11:10:59.923Z,9.50
2023-01-08T11:13:27.372Z,10.10
2023-01-08T11:16:06.608Z,10.70
2023-01-08T11:18:47.872Z,11.20
2023-01-08T11:21:22.551Z,11.20
2023-01-08T11:24:05.019Z,11.40
2023-01-08T11:26:33.189Z,12.00
2023-01-08T11:29:11.170Z,12.30
2023-01-08T11:32:09.538Z,12.60
2023-01-08T11:35:01.000Z,12.80
2023-01-08T11:37:33.332Z,13.10
2023-01-08T11:39:59.943Z,13.20
2023-01-08T11:42:51.123Z,13.00
2023-01-08T11:45:17.776Z,12.70
2023-01-08T11:48:06.591Z,12.60
2023-01-08T11:50:54.346Z,12.60
2023-01-08T11:53:46.493Z,12.80
2023-01-08T11:56:49.850Z,13.00
2023-01-08T11:59:43.187Z,13.40
2023-01-08T12:03:15.710Z,13.80
2023-01-08T12:06:00.542Z,14.20
2023-01-08T12:08:33.262Z,14.60
2023-01-08T12:11:25.271Z,14.40
2023-01-08T12:14:13.486Z,14.70
2023-01-08T12:17:17.119Z,14.90
2023-01-08T12:20:06.531Z,15.30
2023-01-08T12:22:47.406Z,15.50
2023-01-08T12:25:53.088Z,15.20
2023-01-08T12:28:58.003Z,15.40
2023-01-08T12:32:03.027Z,15.00
2023-01-08T12:34:31.646Z,14.20
2023-01-08T12:37:11.073Z,13.30
2023-01-08T12:39:53.966Z,12.60
2023-01-08T12:42:24.613Z,12.10
2023-01-08T12:44:58.181Z,11.70
2023-01-08T12:47:29.075Z,11.60
2023-01-08T12:50:17.797Z,11.50
2023-01-08T12:52:55.329Z,11.40
2023-01-08T12:55:42.427Z,11.30
2023-01-08T12:58:39.974Z,11.50
2023-01-08T13:01:21.817Z,12.10
2023-01-08T13:03:49.226Z,12.40
2023-01-08T13:06:18.038Z,12.70
2023-01-08T13:08:51.325Z,12.60
2023-01-08T13:11:39.631Z,12.30
2023-01-08T13:14:11.885Z,12.00
2023-01-08T13:16:41.111Z,11.70
2023-01-08T13:19:28.037Z,11.80
2023-01-08T13:21:57.161Z,12.00
2023-01-08T13:24:36.362Z,12.40
2023-01-08T13:27:29.075Z,13.00
2023-01-08T13:29:58.125Z,13.30
2023-01-08T13:32:47.095Z,13.00
2023-01-08T13:35:16.750Z,12.70
2023-01-08T13:37:48.389Z,12.80
2023-01-08T13:40:39.655Z,13.00
2023-01-08T13:43:13.189Z,13.50
2023-01-08T13:45:41.817Z,13.60
2023-01-08T13:48:25.328Z,13.60
2023-01-08T13:50:52.456Z,13.40
2023-01-08T13:53:20.575Z,12.90
2023-01-08T13:56:00.945Z,12.50
2023-01-08T13:58:54.324Z,12.10
2023-01-08T14:01:23.827Z,11.80
2023-01-08T14:03:50.689Z,11.50
2023-01-08T14:06:20.774Z,11.30
2023-01-08T14:09:05.660Z,11.20
2023-01-08T14:11:42.834Z,11.10
2023-01-08T14:14:13.951Z,10.90
2023-01-08T14:16:41.838Z,10.80
2023-01-08T14:19:11.469Z,10.70
2023-01-08T14:21:38.263Z,10.60
2023-01-08T14:24:06.576Z,10.50
2023-01-08T14:26:38.764Z,10.50
2023-01-08T14:29:15.155Z,10.50
2023-01-08T14:31:54.271Z,10.40
2023-01-08T14:34:24.552Z,10.40
2023-01-08T14:36:53.040Z,10.30
2023-01-08T14:39:32.709Z,10.30
2023-01-08T14:42:34.571Z,10.30
2023-01-08T14:45:11.099Z,10.20
2023-01-08T14:47:42.802Z,10.20
2023-01-08T14:50:22.697Z,10.10
2023-01-08T14:52:51.034Z,10.20
2023-01-08T14:55:19.907Z,10.10
2023-01-08T14:57:47.986Z,10.10
2023-01-08T15:00:22.457Z,10.10
2023-01-08T15:02:49.975Z,10.00
2023-01-08T15:05:31.317Z,10.00
2023-01-08T15:08:27.557Z,10.00
2023-01-08T15:11:03.197Z,10.00
2023-01-08T15:13:35.780Z,9.90
2023-01-08T15:16:06.945Z,9.90
2023-01-08T15:18:43.194Z,9.80
2023-01-08T15:21:10.524Z,9.80
2023-01-08T15:23:42.714Z,9.70
2023-01-08T15:26:14.518Z,9.60
2023-01-08T15:28:47.854Z,9.50
2023-01-08T15:31:27.312Z,9.50
2023-01-08T15:33:54.921Z,9.40
2023-01-08T15:36:21.824Z,9.40
2023-01-08T15:38:49.481Z,9.30
2023-01-08T15:41:40.622Z,9.30
2023-01-08T15:44:15.264Z,9.20
2023-01-08T15:46:42.138Z,9.20
2023-01-08T15:49:08.924Z,9.10
2023-01-08T15:51:40.463Z,9.10
2023-01-08T15:54:12.847Z,9.00
2023-01-08T15:56:40.007Z,9.00
2023-01-08T15:59:07.663Z,8.90
2023-01-08T16:01:34.709Z,8.90
2023-01-08T16:04:01.440Z,8.90
2023-01-08T16:06:28.201Z,8.80
2023-01-08T16:08:57.861Z,8.80
2023-01-08T16:11:24.668Z,8.70
2023-01-08T16:13:51.434Z,8.70
2023-01-08T16:16:20.593Z,8.60
2023-01-08T16:18:47.393Z,8.60
2023-01-08T16:21:14.362Z,8.60
2023-01-08T16:23:41.612Z,8.60
2023-01-08T16:26:10.798Z,8.50
2023-01-08T16:28:37.665Z,8.50
2023-01-08T16:31:05.009Z,8.40
2023-01-08T16:33:32.123Z,8.40
2023-01-08T16:36:07.476Z,8.40
2023-01-08T16:38:35.444Z,8.40
2023-01-08T16:41:02.283Z,8.30
2023-01-08T16:43:30.490Z,8.30
2023-01-08T16:46:03.033Z,8.30
2023-01-08T16:48:30.477Z,8.30
2023-01-08T16:51:04.847Z,8.30
2023-01-08T16:53:31.941Z,8.20
2023-01-08T16:55:59.941Z,8.20
2023-01-08T16:58:27.314Z,8.20
2023-01-08T17:00:54.073Z,8.20
2023-01-08T17:03:21.248Z,8.20
2023-01-08T17:05:48.614Z,8.20
2023-01-08T17:08:16.804Z,8.30
2023-01-08T17:10:43.969Z,8.30
2023-01-08T17:13:10.901Z,8.40
2023-01-08T17:15:38.176Z,8.40
2023-01-08T17:18:05.213Z,8.40
2023-01-08T17:20:32.274Z,8.50
2023-01-08T17:23:01.287Z,8.50
2023-01-08T17:25:28.211Z,8.50
2023-01-08T17:27:55.000Z,8.50
2023-01-08T17:30:21.785Z,8.60
2023-01-08T17:32:48.513Z,8.60
2023-01-08T17:35:18.013Z,8.60
2023-01-08T17:37:44.735Z,8.60
2023-01-08T17:40:13.065Z,8.60
2023-01-08T17:42:39.756Z,8.60
2023-01-08T17:45:07.246Z,8.70
2023-01-08T17:47:35.197Z,8.60
2023-01-08T17:50:03.290Z,8.60
2023-01-08T17:52:30.005Z,8.60
2023-01-08T17:54:56.731Z,8.60
2023-01-08T17:57:24.192Z,8.60
2023-01-08T17:59:51.288Z,8.50
2023-01-08T18:02:18.224Z,8.50
2023-01-08T18:04:45.606Z,8.50
2023-01-08T18:07:12.689Z,8.40
2023-01-08T18:09:39.479Z,8.40
2023-01-08T18:12:06.783Z,8.40
2023-01-08T18:14:36.008Z,8.40
2023-01-08T18:17:03.167Z,8.40
2023-01-08T18:19:29.852Z,8.40
2023-01-08T18:21:56.746Z,8.30
2023-01-08T18:24:23.728Z,8.30
2023-01-08T18:26:50.682Z,8.30
2023-01-08T18:29:17.328Z,8.30
2023-01-08T18:31:46.171Z,8.30
2023-01-08T18:34:14.967Z,8.40
2023-01-08T18:36:42.311Z,8.30
2023-01-08T18:39:09.356Z,8.30
2023-01-08T18:41:54.879Z,8.30
2023-01-08T18:44:21.650Z,8.30
2023-01-08T18:46:48.475Z,8.30
2023-01-08T18:49:15.713Z,8.20
2023-01-08T18:51:42.923Z,8.20
2023-01-08T18:54:11.093Z,8.20
2023-01-08T18:56:38.424Z,8.20
2023-01-08T18:59:06.417Z,8.20
2023-01-08T19:01:35.194Z,8.20
2023-01-08T19:04:02.490Z,8.20
2023-01-08T19:06:29.382Z,8.20
2023-01-08T19:08:58.679Z,8.20
2023-01-08T19:11:25.815Z,8.10
2023-01-08T19:13:56.964Z,8.10
2023-01-08T19:16:24.225Z,8.10
2023-01-08T19:18:51.208Z,8.10
2023-01-08T19:21:19.489Z,8.00
2023-01-08T19:23:47.517Z,8.00
2023-01-08T19:26:14.856Z,8.00
2023-01-08T19:28:42.341Z,8.00
2023-01-08T19:31:12.539Z,8.00
2023-01-08T19:33:40.013Z,8.00
2023-01-08T19:36:16.185Z,8.00
2023-01-08T19:38:44.204Z,8.00
2023-01-08T19:41:31.947Z,8.00
2023-01-08T19:43:59.328Z,8.00
2023-01-08T19:46:26.519Z,8.10
2023-01-08T19:48:56.304Z,8.00
2023-01-08T19:51:24.552Z,8.10
2023-01-08T19:53:52.303Z,8.10
2023-01-08T19:56:19.109Z,8.10
2023-01-08T19:58:45.831Z,8.10
2023-01-08T20:01:15.529Z,8.10
2023-01-08T20:03:43.597Z,8.20
2023-01-08T20:06:13.071Z,8.10
2023-01-08T20:08:39.802Z,8.10
2023-01-08T20:11:12.246Z,8.10
2023-01-08T20:13:40.115Z,8.10
2023-01-08T20:16:09.220Z,8.20
2023-01-08T20:18:36.668Z,8.10
2023-01-08T20:21:06.088Z,8.10
2023-01-08T20:23:33.495Z,8.10
2023-01-08T20:26:02.027Z,8.00
2023-01-08T20:28:28.877Z,8.10
2023-01-08T20:30:55.664Z,8.10
2023-01-08T20:33:25.012Z,8.10
2023-01-08T20:35:52.359Z,8.10
2023-01-08T20:38:19.143Z,8.10
2023-01-08T20:40:45.832Z,8.10
2023-01-08T20:43:12.566Z,8.20
2023-01-08T20:45:42.214Z,8.10
2023-01-08T20:48:09.169Z,8.10
2023-01-08T20:50:36.035Z,8.10
2023-01-08T20:53:03.488Z,8.10
2023-01-08T20:55:30.496Z,8.10
2023-01-08T20:57:57.211Z,8.10
2023-01-08T21:00:25.685Z,8.10
2023-01-08T21:02:52.485Z,8.10
2023-01-08T21:05:19.241Z,8.00
2023-01-08T21:07:45.959Z,8.00
2023-01-08T21:10:12.683Z,7.90
2023-01-08T21:12:39.945Z,7.90
2023-01-08T21:15:08.553Z,7.90
2023-01-08T21:17:35.708Z,7.80
2023-01-08T21:20:03.891Z,7.80
2023-01-08T21:22:30.689Z,7.80
2023-01-08T21:24:57.396Z,7.70
2023-01-08T21:27:24.168Z,7.70
2023-01-08T21:29:52.288Z,7.70
2023-01-08T21:32:19.075Z,7.70
2023-01-08T21:34:46.028Z,7.70
2023-01-08T21:37:15.146Z,7.60
2023-01-08T21:39:42.893Z,7.60
2023-01-08T21:42:29.496Z,7.60
2023-01-08T21:45:14.904Z,7.70
2023-01-08T21:47:41.834Z,7.70
2023-01-08T21:50:10.188Z,7.70
2023-01-08T21:53:03.346Z,7.70
2023-01-08T21:55:29.980Z,7.70
2023-01-08T21:57:56.815Z,7.70
2023-01-08T22:00:24.906Z,7.70
2023-01-08T22:02:51.611Z,7.70
2023-01-08T22:05:18.336Z,7.70
2023-01-08T22:07:45.076Z,7.80
2023-01-08T22:10:12.069Z,7.80
2023-01-08T22:12:38.804Z,7.80
2023-01-08T22:15:06.037Z,7.80
2023-01-08T22:17:32.711Z,7.90
2023-01-08T22:20:01.349Z,7.90
2023-01-08T22:22:28.873Z,7.90
2023-01-08T22:24:55.604Z,7.90
2023-01-08T22:27:22.380Z,8.00
2023-01-08T22:29:49.155Z,8.00
2023-01-08T22:32:15.881Z,7.90
2023-01-08T22:34:42.564Z,7.90
2023-01-08T22:37:09.402Z,7.90
2023-01-08T22:39:36.132Z,7.90
2023-01-08T22:42:02.968Z,7.80
2023-01-08T22:44:29.827Z,7.70
2023-01-08T22:46:59.020Z,7.60
2023-01-08T22:49:25.952Z,7.60
2023-01-08T22:51:52.733Z,7.50
2023-01-08T22:54:19.501Z,7.50
2023-01-08T22:56:46.211Z,7.50
2023-01-08T22:59:12.971Z,7.40
2023-01-08T23:01:39.751Z,7.40
2023-01-08T23:04:06.498Z,7.40
2023-01-08T23:06:34.230Z,7.40
2023-01-08T23:09:01.168Z,7.40
2023-01-08T23:11:28.532Z,7.30
2023-01-08T23:13:55.545Z,7.30
2023-01-08T23:16:25.303Z,7.30
2023-01-08T23:18:56.152Z,7.30
2023-01-08T23:21:25.277Z,7.30
2023-01-08T23:23:52.321Z,7.30
2023-01-08T23:26:22.786Z,7.30
2023-01-08T23:28:50.927Z,7.30
2023-01-08T23:31:24.157Z,7.20
2023-01-08T23:33:52.059Z,7.20
2023-01-08T23:36:21.000Z,7.20
2023-01-08T23:38:49.568Z,7.20
2023-01-08T23:41:16.782Z,7.20
2023-01-08T23:43:43.829Z,7.10
2023-01-08T23:46:10.607Z,7.10
2023-01-08T23:48:37.379Z,7.10
2023-01-08T23:51:04.514Z,7.10
2023-01-08T23:53:31.336Z,7.10
2023-01-08T23:55:58.084Z,7.00
2023-01-08T23:58:25.555Z,7.00
